Time;durP1;ratioP1;P1;durP2;ratioP2;P2;SDS_P1;SDS_P2;PMS_P1;PMS_P2;Temp;Humidity;BMP_temperature;BMP_pressure;BME280_temperature;BME280_humidity;BME280_pressure;Samples;Min_cycle;Max_cycle;Signal;HPM_P1;HPM_P2
2022/10/20 00:00:58;;;;;;;14.13;7.32;;;;;;;;;;4968405;28;20037;-63
2022/10/20 00:03:25;;;;;;;13.35;7.35;;;;;;;;;;4972649;28;20066;-62
2022/10/20 00:05:50;;;;;;;18.20;7.45;;;;;;;;;;4972904;28;20081;-62
2022/10/20 00:08:16;;;;;;;17.33;7.55;;;;;;;;;;4962141;28;20039;-62
2022/10/20 00:10:41;;;;;;;16.25;7.10;;;;;;;;;;4978748;28;20039;-62
2022/10/20 00:13:07;;;;;;;12.25;7.03;;;;;;;;;;4956283;28;20034;-62
2022/10/20 00:15:32;;;;;;;18.55;7.22;;;;;;;;;;4975052;28;20042;-62
2022/10/20 00:17:58;;;;;;;13.85;7.00;;;;;;;;;;4983720;28;20041;-62
2022/10/20 00:20:23;;;;;;;15.43;7.43;;;;;;;;;;4973129;28;20035;-61
2022/10/20 00:22:49;;;;;;;19.30;7.07;;;;;;;;;;4972771;28;20042;-62
2022/10/20 00:25:14;;;;;;;13.65;7.20;;;;;;;;;;4965290;28;20062;-63
2022/10/20 00:27:40;;;;;;;13.52;6.63;;;;;;;;;;4957888;28;20035;-63
2022/10/20 00:30:06;;;;;;;15.77;6.88;;;;;;;;;;4969017;28;20045;-63
2022/10/20 00:32:31;;;;;;;11.27;6.75;;;;;;;;;;4978017;28;20125;-62
2022/10/20 00:34:56;;;;;;;16.67;6.57;;;;;;;;;;4969502;28;20033;-63
2022/10/20 00:37:22;;;;;;;12.13;6.20;;;;;;;;;;4969177;28;20039;-62
2022/10/20 00:39:48;;;;;;;18.15;6.80;;;;;;;;;;4966821;28;20031;-62
2022/10/20 00:42:18;;;;;;;14.10;6.53;;;;;;;;;;4957447;28;20039;-63
2022/10/20 00:44:51;;;;;;;17.95;8.32;;;;;;;;;;4955939;28;20035;-62
2022/10/20 00:47:23;;;;;;;13.25;6.82;;;;;;;;;;4975783;28;20117;-63
2022/10/20 00:49:49;;;;;;;14.55;6.80;;;;;;;;;;4952968;28;20039;-63
2022/10/20 00:52:19;;;;;;;13.90;6.93;;;;;;;;;;4954528;28;20027;-62
2022/10/20 00:54:44;;;;;;;15.52;6.88;;;;;;;;;;4959477;28;20042;-62
2022/10/20 00:57:10;;;;;;;11.45;6.75;;;;;;;;;;4955063;28;20085;-63
2022/10/20 00:59:37;;;;;;;16.10;7.25;;;;;;;;;;4966344;28;20049;-62
2022/10/20 01:02:05;;;;;;;14.65;6.85;;;;;;;;;;4967205;28;20035;-63
2022/10/20 01:04:30;;;;;;;15.68;7.10;;;;;;;;;;4971678;28;20042;-61
2022/10/20 01:06:56;;;;;;;12.38;7.05;;;;;;;;;;4982628;28;20038;-62
2022/10/20 01:09:22;;;;;;;14.15;7.53;;;;;;;;;;4991820;28;20468;-63
2022/10/20 01:12:20;;;;;;;14.40;7.03;;;;;;;;;;4987921;28;20069;-62
2022/10/20 01:15:27;;;;;;;11.98;6.80;;;;;;;;;;4991360;28;20081;-62
2022/10/20 01:18:12;;;;;;;13.02;6.80;;;;;;;;;;4978071;28;20051;-62
2022/10/20 01:21:08;;;;;;;16.50;7.47;;;;;;;;;;4956011;28;20515;-62
2022/10/20 01:24:10;;;;;;;13.48;6.40;;;;;;;;;;4981466;28;20061;-62
2022/10/20 01:27:06;;;;;;;14.55;6.72;;;;;;;;;;4971751;28;20031;-64
2022/10/20 01:29:46;;;;;;;12.02;6.80;;;;;;;;;;4960380;28;20039;-62
2022/10/20 01:32:29;;;;;;;10.23;6.18;;;;;;;;;;4966290;28;20037;-63
2022/10/20 01:35:25;;;;;;;12.63;6.50;;;;;;;;;;4969110;28;20046;-63
2022/10/20 01:38:23;;;;;;;13.65;6.85;;;;;;;;;;4978616;28;20088;-63
2022/10/20 01:41:10;;;;;;;13.88;6.63;;;;;;;;;;4963635;28;20058;-63
2022/10/20 01:43:38;;;;;;;13.23;7.13;;;;;;;;;;4974674;28;20031;-63
2022/10/20 01:46:05;;;;;;;13.75;7.00;;;;;;;;;;4953567;28;20065;-63
2022/10/20 01:48:33;;;;;;;13.38;6.65;;;;;;;;;;4971366;28;20416;-64
2022/10/20 01:51:00;;;;;;;17.17;7.55;;;;;;;;;;4983545;28;20026;-63
2022/10/20 01:53:26;;;;;;;13.07;7.25;;;;;;;;;;4976363;28;20373;-64
2022/10/20 01:55:53;;;;;;;15.18;7.22;;;;;;;;;;4952099;28;20043;-63
2022/10/20 01:58:28;;;;;;;17.42;6.57;;;;;;;;;;4962075;28;20040;-63
2022/10/20 02:01:14;;;;;;;17.10;7.20;;;;;;;;;;4953234;28;20035;-62
2022/10/20 02:03:52;;;;;;;19.88;7.50;;;;;;;;;;4969610;28;20092;-62
2022/10/20 02:06:31;;;;;;;17.67;7.30;;;;;;;;;;4953194;28;20023;-64
2022/10/20 02:08:59;;;;;;;13.63;6.88;;;;;;;;;;4970081;28;20030;-63
2022/10/20 02:11:27;;;;;;;18.98;7.07;;;;;;;;;;4975361;28;20040;-62
2022/10/20 02:13:55;;;;;;;12.80;7.13;;;;;;;;;;4972928;28;20368;-63
2022/10/20 02:16:34;;;;;;;13.52;7.00;;;;;;;;;;4966935;28;20379;-63
2022/10/20 02:19:02;;;;;;;14.43;7.45;;;;;;;;;;4976744;28;20093;-63
2022/10/20 02:21:27;;;;;;;15.57;6.85;;;;;;;;;;4959533;28;20050;-63
2022/10/20 02:23:55;;;;;;;14.43;6.80;;;;;;;;;;4975225;28;20039;-62
2022/10/20 02:26:24;;;;;;;16.20;7.35;;;;;;;;;;4966392;28;20376;-62
2022/10/20 02:28:57;;;;;;;12.02;7.30;;;;;;;;;;4965652;28;20035;-62
2022/10/20 02:31:23;;;;;;;13.82;7.20;;;;;;;;;;4960015;28;21882;-63
2022/10/20 02:33:49;;;;;;;13.00;6.90;;;;;;;;;;4984088;28;20038;-62
2022/10/20 02:36:18;;;;;;;14.95;7.13;;;;;;;;;;4976532;28;20174;-62
2022/10/20 02:38:43;;;;;;;12.45;7.05;;;;;;;;;;4980099;28;20480;-62
2022/10/20 02:41:09;;;;;;;12.85;7.07;;;;;;;;;;4971625;28;20043;-63
2022/10/20 02:43:34;;;;;;;14.35;7.07;;;;;;;;;;4976714;28;20031;-61
2022/10/20 02:46:00;;;;;;;14.55;6.88;;;;;;;;;;4963957;28;20030;-62
2022/10/20 02:48:25;;;;;;;14.90;6.80;;;;;;;;;;4957032;28;20027;-62
2022/10/20 02:50:51;;;;;;;12.88;7.22;;;;;;;;;;4970544;28;20034;-63
2022/10/20 02:53:16;;;;;;;15.02;7.50;;;;;;;;;;4973879;28;20047;-62
2022/10/20 02:55:42;;;;;;;12.98;7.35;;;;;;;;;;4979340;28;20031;-62
2022/10/20 02:58:07;;;;;;;15.02;7.30;;;;;;;;;;4973208;28;20022;-62
2022/10/20 03:00:33;;;;;;;16.63;7.43;;;;;;;;;;4983149;28;20390;-61
2022/10/20 03:02:58;;;;;;;12.13;6.82;;;;;;;;;;4984648;28;20060;-64
2022/10/20 03:05:24;;;;;;;15.20;7.18;;;;;;;;;;4973170;28;20031;-63
2022/10/20 03:07:49;;;;;;;13.60;7.35;;;;;;;;;;4967326;28;20045;-62
2022/10/20 03:10:15;;;;;;;14.45;7.63;;;;;;;;;;4970788;28;20026;-62
2022/10/20 03:12:40;;;;;;;14.35;7.13;;;;;;;;;;4966523;28;20040;-62
2022/10/20 03:15:06;;;;;;;16.92;7.57;;;;;;;;;;4976806;28;20027;-63
2022/10/20 03:17:31;;;;;;;13.63;7.32;;;;;;;;;;4976642;28;20443;-62
2022/10/20 03:19:56;;;;;;;14.38;7.18;;;;;;;;;;4974662;28;20093;-62
2022/10/20 03:22:22;;;;;;;21.15;7.53;;;;;;;;;;4969832;28;20399;-62
2022/10/20 03:24:47;;;;;;;29.27;8.52;;;;;;;;;;4956533;28;20039;-62
2022/10/20 03:27:13;;;;;;;12.98;7.32;;;;;;;;;;4964422;28;20054;-62
2022/10/20 03:29:38;;;;;;;16.33;7.75;;;;;;;;;;4956139;28;20035;-63
2022/10/20 03:32:04;;;;;;;16.33;8.00;;;;;;;;;;4974682;28;20027;-63
2022/10/20 03:34:29;;;;;;;15.10;7.95;;;;;;;;;;4987856;28;20065;-63
2022/10/20 03:36:55;;;;;;;19.08;7.82;;;;;;;;;;4995184;28;20086;-61
2022/10/20 03:39:20;;;;;;;14.35;8.32;;;;;;;;;;4967443;28;20038;-63
2022/10/20 03:41:46;;;;;;;17.75;8.10;;;;;;;;;;4990374;28;20112;-63
2022/10/20 03:44:11;;;;;;;16.08;7.72;;;;;;;;;;4982344;28;20125;-62
2022/10/20 03:46:36;;;;;;;21.08;8.05;;;;;;;;;;4969145;28;20046;-64
2022/10/20 03:49:02;;;;;;;15.52;8.40;;;;;;;;;;4968205;28;20039;-62
2022/10/20 03:51:28;;;;;;;19.63;8.20;;;;;;;;;;4981221;28;20045;-62
2022/10/20 03:53:53;;;;;;;17.98;8.57;;;;;;;;;;4964724;28;20477;-63
2022/10/20 03:56:20;;;;;;;15.15;7.95;;;;;;;;;;4960100;28;20519;-63
2022/10/20 03:58:46;;;;;;;19.50;8.18;;;;;;;;;;4958038;28;20034;-63
2022/10/20 04:01:18;;;;;;;18.27;9.15;;;;;;;;;;4953965;28;20114;-63
2022/10/20 04:03:44;;;;;;;14.52;8.32;;;;;;;;;;4960297;28;20035;-62
2022/10/20 04:06:14;;;;;;;17.48;8.55;;;;;;;;;;4959405;28;20095;-63
2022/10/20 04:08:40;;;;;;;20.80;8.20;;;;;;;;;;4967163;28;20042;-62
2022/10/20 04:11:06;;;;;;;15.75;7.95;;;;;;;;;;4979517;28;20372;-63
2022/10/20 04:13:31;;;;;;;21.15;8.38;;;;;;;;;;4976093;28;20030;-62
2022/10/20 04:15:57;;;;;;;18.38;8.48;;;;;;;;;;4974314;28;20583;-62
2022/10/20 04:18:22;;;;;;;15.45;8.50;;;;;;;;;;4972271;28;20032;-62
2022/10/20 04:20:47;;;;;;;18.55;8.90;;;;;;;;;;4954690;28;20380;-62
2022/10/20 04:23:13;;;;;;;16.42;8.52;;;;;;;;;;4985908;28;125362;-64
2022/10/20 04:25:44;;;;;;;19.92;8.93;;;;;;;;;;4955584;28;20039;-64
2022/10/20 04:28:10;;;;;;;18.55;8.55;;;;;;;;;;4954973;28;20097;-63
2022/10/20 04:30:37;;;;;;;19.05;8.80;;;;;;;;;;4974997;28;20099;-63
2022/10/20 04:33:03;;;;;;;19.92;9.10;;;;;;;;;;4996360;28;20034;-63
2022/10/20 04:35:28;;;;;;;15.00;8.80;;;;;;;;;;4976135;28;20035;-63
2022/10/20 04:37:53;;;;;;;20.90;9.65;;;;;;;;;;4967802;28;20034;-62
2022/10/20 04:40:19;;;;;;;15.93;8.68;;;;;;;;;;4985214;28;20256;-63
2022/10/20 04:42:44;;;;;;;18.95;9.07;;;;;;;;;;4976099;28;20034;-63
2022/10/20 04:45:10;;;;;;;17.75;9.02;;;;;;;;;;4979261;28;20112;-63
2022/10/20 04:47:36;;;;;;;20.42;9.10;;;;;;;;;;4984819;28;20035;-63
2022/10/20 04:50:02;;;;;;;18.38;9.27;;;;;;;;;;4993633;28;20038;-63
2022/10/20 04:52:28;;;;;;;17.55;9.13;;;;;;;;;;4989782;28;20034;-63
2022/10/20 04:54:54;;;;;;;16.88;8.80;;;;;;;;;;4993964;28;20451;-63
2022/10/20 04:57:19;;;;;;;20.92;9.35;;;;;;;;;;4992815;28;20033;-64
2022/10/20 04:59:45;;;;;;;16.70;9.57;;;;;;;;;;4993157;28;20058;-63
2022/10/20 05:02:10;;;;;;;16.00;8.80;;;;;;;;;;4991221;28;20096;-63
2022/10/20 05:04:36;;;;;;;17.38;9.35;;;;;;;;;;4979760;28;20456;-62
2022/10/20 05:07:01;;;;;;;16.48;9.88;;;;;;;;;;4991322;28;20117;-63
2022/10/20 05:09:26;;;;;;;18.67;9.38;;;;;;;;;;4986024;28;20064;-62
2022/10/20 05:11:52;;;;;;;15.70;9.38;;;;;;;;;;4991344;28;20124;-64
2022/10/20 05:14:18;;;;;;;15.15;9.38;;;;;;;;;;4988832;28;20026;-62
2022/10/20 05:16:43;;;;;;;19.80;9.45;;;;;;;;;;4992084;28;20042;-63
2022/10/20 05:19:10;;;;;;;17.98;9.88;;;;;;;;;;4988036;28;20482;-64
2022/10/20 05:21:36;;;;;;;17.50;9.85;;;;;;;;;;4987352;28;20058;-67
2022/10/20 05:24:03;;;;;;;15.38;8.60;;;;;;;;;;4977728;28;20030;-66
2022/10/20 05:26:35;;;;;;;16.35;9.18;;;;;;;;;;4991289;28;20035;-67
2022/10/20 05:29:03;;;;;;;20.23;9.20;;;;;;;;;;4990967;28;20038;-71
2022/10/20 05:31:28;;;;;;;15.85;9.35;;;;;;;;;;4973163;28;20376;-69
2022/10/20 05:33:55;;;;;;;16.30;9.32;;;;;;;;;;4974720;28;20027;-71
2022/10/20 05:36:25;;;;;;;18.17;9.38;;;;;;;;;;4976006;28;20060;-72
2022/10/20 05:38:52;;;;;;;17.42;9.50;;;;;;;;;;4973074;28;20050;-71
2022/10/20 05:41:23;;;;;;;17.88;9.02;;;;;;;;;;4980225;28;20050;-72
2022/10/20 05:43:50;;;;;;;13.80;9.07;;;;;;;;;;4992806;28;20026;-71
2022/10/20 05:46:16;;;;;;;18.50;9.10;;;;;;;;;;4976346;28;20469;-72
2022/10/20 05:48:42;;;;;;;15.10;9.20;;;;;;;;;;4981544;28;20034;-72
2022/10/20 05:51:10;;;;;;;15.10;9.18;;;;;;;;;;4971944;28;20126;-70
2022/10/20 05:53:36;;;;;;;17.83;9.20;;;;;;;;;;4988917;28;20054;-71
2022/10/20 05:56:11;;;;;;;16.75;8.93;;;;;;;;;;4977232;28;20429;-71
2022/10/20 05:58:38;;;;;;;15.02;8.93;;;;;;;;;;4980456;28;20044;-71
2022/10/20 06:01:04;;;;;;;17.10;8.65;;;;;;;;;;4976965;28;20101;-69
2022/10/20 06:03:29;;;;;;;15.90;8.52;;;;;;;;;;4974953;28;20042;-71
2022/10/20 06:05:59;;;;;;;13.88;8.20;;;;;;;;;;4988663;28;20041;-71
2022/10/20 06:08:28;;;;;;;14.05;8.40;;;;;;;;;;4990553;28;20113;-71
2022/10/20 06:10:54;;;;;;;14.48;8.65;;;;;;;;;;4978436;28;20039;-71
2022/10/20 06:13:19;;;;;;;14.65;8.88;;;;;;;;;;4965610;28;20045;-69
2022/10/20 06:15:46;;;;;;;15.65;8.98;;;;;;;;;;4979910;28;20494;-71
2022/10/20 06:18:12;;;;;;;18.30;9.30;;;;;;;;;;4974514;28;20034;-70
2022/10/20 06:20:37;;;;;;;15.50;9.07;;;;;;;;;;4979142;28;20085;-69
2022/10/20 06:23:02;;;;;;;17.27;8.70;;;;;;;;;;4989811;28;20527;-68
2022/10/20 06:25:28;;;;;;;17.70;9.10;;;;;;;;;;4985862;28;20082;-72
2022/10/20 06:27:53;;;;;;;14.90;8.63;;;;;;;;;;4988682;28;20038;-69
2022/10/20 06:30:19;;;;;;;15.23;8.13;;;;;;;;;;4978845;28;20086;-71
2022/10/20 06:32:44;;;;;;;15.32;8.65;;;;;;;;;;4976839;28;20027;-70
2022/10/20 06:35:10;;;;;;;17.45;8.73;;;;;;;;;;4991252;28;20038;-69
2022/10/20 06:37:35;;;;;;;13.27;8.65;;;;;;;;;;4990984;28;20038;-70
2022/10/20 06:40:01;;;;;;;17.75;9.02;;;;;;;;;;4989669;28;20486;-70
2022/10/20 06:42:27;;;;;;;13.70;8.43;;;;;;;;;;4987944;28;20073;-71
2022/10/20 06:44:54;;;;;;;15.48;9.13;;;;;;;;;;4992197;28;20031;-71
2022/10/20 06:47:19;;;;;;;14.48;8.35;;;;;;;;;;4984562;28;20105;-68
2022/10/20 06:49:47;;;;;;;14.05;8.52;;;;;;;;;;4988342;28;20066;-67
2022/10/20 06:52:13;;;;;;;14.63;8.32;;;;;;;;;;4991125;28;20038;-72
2022/10/20 06:54:38;;;;;;;16.80;9.05;;;;;;;;;;4989842;28;20026;-71
2022/10/20 06:57:03;;;;;;;11.63;7.85;;;;;;;;;;4991842;28;20036;-69
2022/10/20 06:59:29;;;;;;;18.02;9.10;;;;;;;;;;4991515;28;20065;-71
2022/10/20 07:01:54;;;;;;;14.77;8.80;;;;;;;;;;4987501;28;20043;-70
2022/10/20 07:04:20;;;;;;;15.07;8.68;;;;;;;;;;4990153;28;20030;-72
2022/10/20 07:06:45;;;;;;;17.42;8.98;;;;;;;;;;4971064;28;20384;-72
2022/10/20 07:09:14;;;;;;;13.73;9.00;;;;;;;;;;4981275;28;20368;-73
2022/10/20 07:11:40;;;;;;;15.40;9.05;;;;;;;;;;4981009;28;20551;-71
2022/10/20 07:14:05;;;;;;;16.85;9.15;;;;;;;;;;4971218;28;20098;-72
2022/10/20 07:16:33;;;;;;;16.58;8.82;;;;;;;;;;4989085;28;20035;-73
2022/10/20 07:18:59;;;;;;;15.60;9.57;;;;;;;;;;4986637;28;20045;-74
2022/10/20 07:21:27;;;;;;;15.48;9.23;;;;;;;;;;4981509;28;20607;-71
2022/10/20 07:23:54;;;;;;;14.57;8.23;;;;;;;;;;4986673;28;20434;-69
2022/10/20 07:26:23;;;;;;;13.55;9.02;;;;;;;;;;4991202;28;20117;-69
2022/10/20 07:28:51;;;;;;;14.90;9.15;;;;;;;;;;4977670;28;20094;-72
2022/10/20 07:31:22;;;;;;;14.15;8.98;;;;;;;;;;4955215;28;20031;-72
2022/10/20 07:33:47;;;;;;;15.68;9.88;;;;;;;;;;4984929;28;20070;-72
2022/10/20 07:36:15;;;;;;;14.73;8.30;;;;;;;;;;4994115;28;20121;-73
2022/10/20 07:38:41;;;;;;;12.70;8.48;;;;;;;;;;4982537;28;20030;-71
2022/10/20 07:41:07;;;;;;;17.38;8.75;;;;;;;;;;4974325;28;20046;-71
2022/10/20 07:43:33;;;;;;;11.93;8.10;;;;;;;;;;4982122;28;20026;-73
2022/10/20 07:45:59;;;;;;;15.82;8.68;;;;;;;;;;4980536;28;20493;-73
2022/10/20 07:48:24;;;;;;;17.60;8.55;;;;;;;;;;4992825;28;20037;-71
2022/10/20 07:50:49;;;;;;;14.80;9.20;;;;;;;;;;4991643;28;20729;-71
2022/10/20 07:53:15;;;;;;;12.98;9.15;;;;;;;;;;4993806;28;20053;-71
2022/10/20 07:55:40;;;;;;;24.08;9.20;;;;;;;;;;4983168;28;20035;-72
2022/10/20 07:58:05;;;;;;;16.05;8.98;;;;;;;;;;4994008;28;20038;-71
2022/10/20 08:00:31;;;;;;;13.95;8.63;;;;;;;;;;4992975;28;20034;-73
2022/10/20 08:02:56;;;;;;;14.75;9.70;;;;;;;;;;4994549;28;20153;-71
2022/10/20 08:05:21;;;;;;;14.98;8.93;;;;;;;;;;4993757;28;20066;-71
2022/10/20 08:07:47;;;;;;;14.98;9.05;;;;;;;;;;4990164;28;20034;-71
2022/10/20 08:10:12;;;;;;;17.83;9.35;;;;;;;;;;4992335;28;20091;-70
2022/10/20 08:12:37;;;;;;;14.80;8.82;;;;;;;;;;4979501;28;20117;-71
2022/10/20 08:15:04;;;;;;;16.75;8.80;;;;;;;;;;4984884;28;20065;-70
2022/10/20 08:17:30;;;;;;;17.02;8.77;;;;;;;;;;4994321;28;20084;-71
2022/10/20 08:19:55;;;;;;;13.10;8.70;;;;;;;;;;4978696;28;20038;-68
2022/10/20 08:22:20;;;;;;;14.48;8.68;;;;;;;;;;4991231;28;20047;-67
2022/10/20 08:24:46;;;;;;;12.32;8.15;;;;;;;;;;4994293;28;20029;-71
2022/10/20 08:27:11;;;;;;;13.40;8.43;;;;;;;;;;4981543;28;20030;-69
2022/10/20 08:29:37;;;;;;;13.73;8.48;;;;;;;;;;4992463;28;20125;-71
2022/10/20 08:32:03;;;;;;;14.38;8.55;;;;;;;;;;4984835;28;20035;-69
2022/10/20 08:34:29;;;;;;;13.35;8.68;;;;;;;;;;4970393;28;20050;-71
2022/10/20 08:36:54;;;;;;;12.75;8.07;;;;;;;;;;4974566;28;20043;-72
2022/10/20 08:39:20;;;;;;;14.48;8.75;;;;;;;;;;4988385;28;20038;-71
2022/10/20 08:41:48;;;;;;;13.75;8.02;;;;;;;;;;4992531;28;20041;-68
2022/10/20 08:44:26;;;;;;;12.25;8.13;;;;;;;;;;4983214;28;20034;-70
2022/10/20 08:46:52;;;;;;;13.65;8.48;;;;;;;;;;4979161;28;20038;-72
2022/10/20 08:49:24;;;;;;;11.85;8.32;;;;;;;;;;4992707;28;20089;-70
2022/10/20 08:51:50;;;;;;;13.63;8.77;;;;;;;;;;4989570;28;20068;-70
2022/10/20 08:54:17;;;;;;;16.05;8.38;;;;;;;;;;4993058;28;20038;-71
2022/10/20 08:56:45;;;;;;;13.50;8.60;;;;;;;;;;4992783;28;20038;-71
2022/10/20 08:59:33;;;;;;;14.90;8.68;;;;;;;;;;4992406;28;20049;-71
2022/10/20 09:01:59;;;;;;;12.75;8.05;;;;;;;;;;4991977;28;20038;-71
2022/10/20 09:04:40;;;;;;;11.68;8.18;;;;;;;;;;4973363;28;20878;-71
2022/10/20 09:07:15;;;;;;;;;;;;;;;;;;4989288;28;20376;-70
2022/10/20 09:09:41;;;;;;;14.57;8.43;;;;;;;;;;4991138;28;19909;-71
2022/10/20 09:12:11;;;;;;;15.20;8.23;;;;;;;;;;4988105;28;20036;-71
2022/10/20 09:14:36;;;;;;;12.73;8.00;;;;;;;;;;4987715;28;20534;-70
2022/10/20 09:17:03;;;;;;;19.55;8.45;;;;;;;;;;4992952;28;20030;-69
2022/10/20 09:19:29;;;;;;;13.85;8.40;;;;;;;;;;4991471;28;20081;-71
2022/10/20 09:22:02;;;;;;;15.00;8.52;;;;;;;;;;4988153;28;20388;-72
2022/10/20 09:24:30;;;;;;;14.15;8.50;;;;;;;;;;4991174;28;20422;-71
2022/10/20 09:27:14;;;;;;;14.80;8.48;;;;;;;;;;4987211;28;20081;-72
2022/10/20 09:29:40;;;;;;;12.57;8.18;;;;;;;;;;4987135;28;20053;-73
2022/10/20 09:32:18;;;;;;;12.27;8.38;;;;;;;;;;4978304;28;20062;-68
2022/10/20 09:34:43;;;;;;;13.90;8.00;;;;;;;;;;4979296;28;20042;-73
2022/10/20 09:37:08;;;;;;;13.07;8.25;;;;;;;;;;4991551;28;20356;-71
2022/10/20 09:39:58;;;;;;;13.70;8.38;;;;;;;;;;4988033;28;20490;-72
2022/10/20 09:42:39;;;;;;;13.05;8.43;;;;;;;;;;4992075;28;20036;-71
2022/10/20 09:45:32;;;;;;;13.85;8.63;;;;;;;;;;4983926;28;20165;-71
2022/10/20 09:48:20;;;;;;;14.02;8.45;;;;;;;;;;4987910;28;20053;-72
2022/10/20 09:50:50;;;;;;;15.93;8.25;;;;;;;;;;4972174;28;20365;-68
2022/10/20 09:53:28;;;;;;;16.50;8.73;;;;;;;;;;4971935;28;20027;-66
2022/10/20 09:55:55;;;;;;;15.60;8.65;;;;;;;;;;4976557;28;20117;-71
2022/10/20 09:58:29;;;;;;;11.90;8.65;;;;;;;;;;4970857;28;20106;-69
2022/10/20 10:01:11;;;;;;;16.13;8.40;;;;;;;;;;4991289;28;20034;-69
2022/10/20 10:03:43;;;;;;;15.95;8.73;;;;;;;;;;4983193;28;20140;-72
2022/10/20 10:06:38;;;;;;;13.55;8.23;;;;;;;;;;4991628;28;20026;-70
2022/10/20 10:09:26;;;;;;;17.70;8.70;;;;;;;;;;4983830;28;20069;-70
2022/10/20 10:12:15;;;;;;;13.48;8.30;;;;;;;;;;4976720;28;20184;-71
2022/10/20 10:15:00;;;;;;;13.60;7.95;;;;;;;;;;4980639;28;20057;-71
2022/10/20 10:17:33;;;;;;;11.35;7.97;;;;;;;;;;4991279;28;20038;-72
2022/10/20 10:20:21;;;;;;;12.52;8.07;;;;;;;;;;4989949;28;20137;-75
2022/10/20 10:22:47;;;;;;;13.25;7.93;;;;;;;;;;4988917;28;20046;-71
2022/10/20 10:25:18;;;;;;;11.85;8.18;;;;;;;;;;4990260;28;20031;-71
2022/10/20 10:28:05;;;;;;;15.93;8.07;;;;;;;;;;4986871;28;20027;-73
2022/10/20 10:30:33;;;;;;;12.93;8.05;;;;;;;;;;4989559;28;20479;-72
2022/10/20 10:32:59;;;;;;;12.32;7.80;;;;;;;;;;4972774;28;20471;-71
2022/10/20 10:35:29;;;;;;;14.60;8.75;;;;;;;;;;4988502;28;20034;-72
2022/10/20 10:37:57;;;;;;;13.77;8.18;;;;;;;;;;4992018;28;20430;-74
2022/10/20 10:40:52;;;;;;;15.15;8.52;;;;;;;;;;4988682;28;20267;-73
2022/10/20 10:43:31;;;;;;;13.18;8.45;;;;;;;;;;4989252;28;20058;-71
2022/10/20 10:46:02;;;;;;;14.50;8.25;;;;;;;;;;4981858;28;20038;-74
2022/10/20 10:48:45;;;;;;;12.60;8.20;;;;;;;;;;4992211;28;20084;-72
2022/10/20 10:51:43;;;;;;;13.45;8.38;;;;;;;;;;4991339;28;20514;-70
2022/10/20 10:54:41;;;;;;;12.40;7.47;;;;;;;;;;4988238;28;20179;-71
2022/10/20 10:57:34;;;;;;;14.10;7.38;;;;;;;;;;4995074;28;20042;-70
2022/10/20 11:00:06;;;;;;;13.88;7.00;;;;;;;;;;4978090;28;20038;-66
2022/10/20 11:02:34;;;;;;;10.48;6.57;;;;;;;;;;4974540;28;20378;-66
2022/10/20 11:05:18;;;;;;;10.90;6.25;;;;;;;;;;4982451;28;20046;-71
2022/10/20 11:08:18;;;;;;;8.20;5.85;;;;;;;;;;4995688;28;20030;-70
2022/10/20 11:10:54;;;;;;;9.38;6.07;;;;;;;;;;4983433;28;20042;-71
2022/10/20 11:13:35;;;;;;;9.05;6.03;;;;;;;;;;4991715;28;20454;-70
2022/10/20 11:16:11;;;;;;;8.82;5.93;;;;;;;;;;4995506;28;20091;-73
2022/10/20 11:19:06;;;;;;;8.27;5.70;;;;;;;;;;4989577;28;20104;-71
2022/10/20 11:22:10;;;;;;;10.40;6.20;;;;;;;;;;4975851;28;20046;-72
2022/10/20 11:25:00;;;;;;;10.73;5.97;;;;;;;;;;4971350;28;20465;-72
2022/10/20 11:27:29;;;;;;;11.40;5.93;;;;;;;;;;4994385;28;20088;-71
2022/10/20 11:30:15;;;;;;;11.13;6.60;;;;;;;;;;4989852;28;20030;-71
2022/10/20 11:33:03;;;;;;;8.85;5.72;;;;;;;;;;4993576;28;20049;-71
2022/10/20 11:35:43;;;;;;;9.70;5.88;;;;;;;;;;4991354;28;20042;-71
2022/10/20 11:38:32;;;;;;;20.88;6.50;;;;;;;;;;4981971;28;20058;-71
2022/10/20 11:41:07;;;;;;;10.75;6.20;;;;;;;;;;4995025;28;20039;-70
2022/10/20 11:43:52;;;;;;;12.98;6.03;;;;;;;;;;4989648;28;20045;-67
2022/10/20 11:46:48;;;;;;;11.70;6.68;;;;;;;;;;4965790;28;20081;-72
2022/10/20 11:49:14;;;;;;;13.60;6.72;;;;;;;;;;4974176;28;20481;-72
2022/10/20 11:52:05;;;;;;;18.77;6.35;;;;;;;;;;4993532;28;20121;-70
2022/10/20 11:54:30;;;;;;;;;;;;;;;;;;4976876;28;20038;-71
2022/10/20 11:57:30;;;;;;;12.40;5.95;;;;;;;;;;4992407;28;19914;-73
2022/10/20 12:00:20;;;;;;;14.95;6.47;;;;;;;;;;4987901;28;20030;-72
2022/10/20 12:02:57;;;;;;;10.30;6.45;;;;;;;;;;4994896;28;20030;-72
2022/10/20 12:05:39;;;;;;;13.35;6.70;;;;;;;;;;4987705;28;20088;-71
2022/10/20 12:08:20;;;;;;;12.25;6.65;;;;;;;;;;4990764;28;20038;-70
2022/10/20 12:10:51;;;;;;;13.63;6.57;;;;;;;;;;4970729;28;20071;-72
2022/10/20 12:14:15;;;;;;;11.68;6.93;;;;;;;;;;4973729;28;20041;-67
2022/10/20 12:16:53;;;;;;;12.38;6.65;;;;;;;;;;4972014;28;20129;-69
2022/10/20 12:19:26;;;;;;;12.63;6.65;;;;;;;;;;4969314;28;20100;-71
2022/10/20 12:21:54;;;;;;;15.23;7.25;;;;;;;;;;4972398;28;20054;-73
2022/10/20 12:24:39;;;;;;;13.18;7.57;;;;;;;;;;4970098;28;20122;-72
2022/10/20 12:27:07;;;;;;;13.07;7.43;;;;;;;;;;4963674;28;20516;-69
2022/10/20 12:29:32;;;;;;;12.65;7.65;;;;;;;;;;4960619;28;20163;-71
2022/10/20 12:32:26;;;;;;;13.25;8.15;;;;;;;;;;4966265;28;20039;-75
2022/10/20 12:35:21;;;;;;;12.20;7.22;;;;;;;;;;4967434;28;20046;-69
2022/10/20 12:38:04;;;;;;;14.27;8.32;;;;;;;;;;4950765;29;20035;-72
2022/10/20 12:40:33;;;;;;;15.27;7.90;;;;;;;;;;4969463;28;20076;-71
2022/10/20 12:42:59;;;;;;;15.68;7.90;;;;;;;;;;4971214;28;20169;-70
2022/10/20 12:45:39;;;;;;;14.43;8.50;;;;;;;;;;4951084;28;20039;-69
2022/10/20 12:48:07;;;;;;;18.00;8.80;;;;;;;;;;4951714;29;20567;-70
2022/10/20 12:50:39;;;;;;;15.43;9.40;;;;;;;;;;4954777;29;20031;-68
2022/10/20 12:53:25;;;;;;;19.10;10.00;;;;;;;;;;4970255;28;20395;-69
2022/10/20 12:56:06;;;;;;;14.43;9.95;;;;;;;;;;4970864;28;20077;-68
2022/10/20 12:58:36;;;;;;;17.83;10.02;;;;;;;;;;4974457;28;20038;-71
2022/10/20 13:01:07;;;;;;;15.55;10.10;;;;;;;;;;4965905;28;20062;-64
2022/10/20 13:03:45;;;;;;;19.05;10.35;;;;;;;;;;4973335;28;20070;-68
2022/10/20 13:06:22;;;;;;;21.55;11.52;;;;;;;;;;4964248;28;20149;-69
2022/10/20 13:09:19;;;;;;;18.38;10.55;;;;;;;;;;4966843;28;20412;-70
2022/10/20 13:11:55;;;;;;;16.63;11.00;;;;;;;;;;4952774;28;20050;-70
2022/10/20 13:14:30;;;;;;;17.40;11.60;;;;;;;;;;4971011;28;20035;-68
2022/10/20 13:17:04;;;;;;;19.77;12.25;;;;;;;;;;4972244;28;20464;-70
2022/10/20 13:19:56;;;;;;;21.55;11.95;;;;;;;;;;4972728;28;20031;-70
2022/10/20 13:22:43;;;;;;;20.95;11.43;;;;;;;;;;4982662;28;20061;-70
2022/10/20 13:25:34;;;;;;;16.52;11.73;;;;;;;;;;4991091;28;20042;-69
2022/10/20 13:28:24;;;;;;;20.35;11.50;;;;;;;;;;4994292;28;20057;-68
2022/10/20 13:31:13;;;;;;;27.33;12.55;;;;;;;;;;4987350;28;20050;-67
2022/10/20 13:34:02;;;;;;;19.83;11.57;;;;;;;;;;4985971;28;20452;-67
2022/10/20 13:36:42;;;;;;;18.33;11.57;;;;;;;;;;4973287;28;20045;-67
2022/10/20 13:39:30;;;;;;;16.42;11.73;;;;;;;;;;4981423;28;20038;-68
2022/10/20 13:42:19;;;;;;;17.17;11.48;;;;;;;;;;4992833;28;20035;-67
2022/10/20 13:45:03;;;;;;;19.08;11.30;;;;;;;;;;4992632;28;20120;-67
2022/10/20 13:47:31;;;;;;;22.10;12.02;;;;;;;;;;4987116;28;20043;-68
2022/10/20 13:50:13;;;;;;;20.50;11.95;;;;;;;;;;4992802;28;20038;-67
2022/10/20 13:52:43;;;;;;;17.85;11.52;;;;;;;;;;4977756;28;20039;-67
2022/10/20 13:55:17;;;;;;;20.70;11.83;;;;;;;;;;4961882;28;20105;-69
2022/10/20 13:58:15;;;;;;;19.73;12.07;;;;;;;;;;4973217;28;20349;-68
2022/10/20 14:00:55;;;;;;;18.08;11.38;;;;;;;;;;4980814;28;20080;-67
2022/10/20 14:03:20;;;;;;;19.52;11.10;;;;;;;;;;4981330;28;20117;-67
2022/10/20 14:05:45;;;;;;;18.40;10.00;;;;;;;;;;4988784;28;20188;-68
2022/10/20 14:08:14;;;;;;;15.82;10.35;;;;;;;;;;4988917;28;20034;-68
2022/10/20 14:10:47;;;;;;;13.18;9.15;;;;;;;;;;4992380;28;20030;-68
2022/10/20 14:13:16;;;;;;;13.70;9.55;;;;;;;;;;4973958;28;20166;-67
2022/10/20 14:15:47;;;;;;;15.43;10.43;;;;;;;;;;4972952;28;20467;-69
2022/10/20 14:18:38;;;;;;;17.08;10.38;;;;;;;;;;4980292;28;20034;-68
2022/10/20 14:21:15;;;;;;;16.48;10.20;;;;;;;;;;4988937;28;20116;-68
2022/10/20 14:23:43;;;;;;;19.30;10.15;;;;;;;;;;4986994;28;20065;-68
2022/10/20 14:26:20;;;;;;;15.68;10.07;;;;;;;;;;4976037;28;20031;-69
2022/10/20 14:28:48;;;;;;;18.35;9.82;;;;;;;;;;4989135;28;20031;-68
2022/10/20 14:31:14;;;;;;;14.10;8.80;;;;;;;;;;4993685;28;20045;-67
2022/10/20 14:33:42;;;;;;;14.77;8.90;;;;;;;;;;4996567;28;20042;-67
2022/10/20 14:36:24;;;;;;;13.23;8.98;;;;;;;;;;4991435;28;20031;-68
2022/10/20 14:38:52;;;;;;;10.90;7.47;;;;;;;;;;4983511;28;20027;-67
2022/10/20 14:41:25;;;;;;;13.55;7.45;;;;;;;;;;4985181;28;20276;-68
2022/10/20 14:43:54;;;;;;;14.80;7.47;;;;;;;;;;4994138;28;20487;-70
2022/10/20 14:46:32;;;;;;;11.07;7.20;;;;;;;;;;4993987;28;20489;-69
2022/10/20 14:48:59;;;;;;;11.65;7.00;;;;;;;;;;4992208;28;20415;-69
2022/10/20 14:51:39;;;;;;;14.15;7.28;;;;;;;;;;4995037;28;20057;-68
2022/10/20 14:54:19;;;;;;;10.98;7.03;;;;;;;;;;4993095;28;20041;-68
2022/10/20 14:56:51;;;;;;;12.45;6.50;;;;;;;;;;4985958;28;20131;-67